sensor_id;sensor_type;location;lat;lon;timestamp;P1;durP1;ratioP1;P2;durP2;ratioP2
75423;SDS011;64005;55.160;36.002;2022-10-22T00:01:55;2.35;;;0.73;;
75423;SDS011;64005;55.160;36.002;2022-10-22T00:04:21;2.47;;;0.93;;
75423;SDS011;64005;55.160;36.002;2022-10-22T00:06:47;2.42;;;0.80;;
75423;SDS011;64005;55.160;36.002;2022-10-22T00:09:13;6.93;;;1.00;;
75423;SDS011;64005;55.160;36.002;2022-10-22T00:11:39;3.15;;;0.95;;
75423;SDS011;64005;55.160;36.002;2022-10-22T00:14:06;3.63;;;0.90;;
75423;SDS011;64005;55.160;36.002;2022-10-22T00:16:33;2.40;;;0.68;;
75423;SDS011;64005;55.160;36.002;2022-10-22T00:18:58;5.03;;;0.90;;
75423;SDS011;64005;55.160;36.002;2022-10-22T00:21:24;2.13;;;0.77;;
75423;SDS011;64005;55.160;36.002;2022-10-22T00:23:53;2.72;;;0.90;;
75423;SDS011;64005;55.160;36.002;2022-10-22T00:26:21;1.58;;;0.60;;
75423;SDS011;64005;55.160;36.002;2022-10-22T00:28:47;2.20;;;0.70;;
75423;SDS011;64005;55.160;36.002;2022-10-22T00:31:13;2.97;;;0.85;;
75423;SDS011;64005;55.160;36.002;2022-10-22T00:33:40;3.97;;;0.88;;
75423;SDS011;64005;55.160;36.002;2022-10-22T00:36:06;5.47;;;0.90;;
75423;SDS011;64005;55.160;36.002;2022-10-22T00:38:33;3.28;;;1.02;;
75423;SDS011;64005;55.160;36.002;2022-10-22T00:40:59;3.97;;;1.13;;
75423;SDS011;64005;55.160;36.002;2022-10-22T00:43:25;2.42;;;0.90;;
75423;SDS011;64005;55.160;36.002;2022-10-22T00:45:52;4.10;;;1.10;;
75423;SDS011;64005;55.160;36.002;2022-10-22T00:48:21;2.53;;;0.77;;
75423;SDS011;64005;55.160;36.002;2022-10-22T00:53:36;4.30;;;1.40;;
75423;SDS011;64005;55.160;36.002;2022-10-22T00:56:08;3.50;;;1.27;;
75423;SDS011;64005;55.160;36.002;2022-10-22T00:58:36;4.53;;;1.25;;
75423;SDS011;64005;55.160;36.002;2022-10-22T01:01:06;3.53;;;1.10;;
75423;SDS011;64005;55.160;36.002;2022-10-22T01:03:38;2.47;;;0.90;;
75423;SDS011;64005;55.160;36.002;2022-10-22T01:06:03;3.90;;;1.10;;
75423;SDS011;64005;55.160;36.002;2022-10-22T01:08:37;3.15;;;1.00;;
75423;SDS011;64005;55.160;36.002;2022-10-22T01:11:47;2.20;;;1.00;;
75423;SDS011;64005;55.160;36.002;2022-10-22T01:16:58;4.15;;;1.10;;
75423;SDS011;64005;55.160;36.002;2022-10-22T01:22:33;3.83;;;1.27;;
75423;SDS011;64005;55.160;36.002;2022-10-22T01:25:22;2.83;;;0.82;;
75423;SDS011;64005;55.160;36.002;2022-10-22T01:28:09;3.72;;;1.40;;
75423;SDS011;64005;55.160;36.002;2022-10-22T01:30:37;3.63;;;1.10;;
75423;SDS011;64005;55.160;36.002;2022-10-22T01:33:05;3.30;;;0.95;;
75423;SDS011;64005;55.160;36.002;2022-10-22T01:35:40;3.22;;;1.17;;
75423;SDS011;64005;55.160;36.002;2022-10-22T01:38:10;3.83;;;1.10;;
75423;SDS011;64005;55.160;36.002;2022-10-22T01:40:39;3.20;;;1.00;;
75423;SDS011;64005;55.160;36.002;2022-10-22T01:43:08;3.78;;;1.30;;
75423;SDS011;64005;55.160;36.002;2022-10-22T01:45:40;2.88;;;1.00;;
75423;SDS011;64005;55.160;36.002;2022-10-22T01:48:25;4.65;;;1.50;;
75423;SDS011;64005;55.160;36.002;2022-10-22T01:59:30;3.28;;;1.02;;
75423;SDS011;64005;55.160;36.002;2022-10-22T02:05:15;3.33;;;1.35;;
75423;SDS011;64005;55.160;36.002;2022-10-22T02:07:54;3.00;;;0.90;;
75423;SDS011;64005;55.160;36.002;2022-10-22T02:10:26;4.03;;;1.40;;
75423;SDS011;64005;55.160;36.002;2022-10-22T02:12:54;3.97;;;1.20;;
75423;SDS011;64005;55.160;36.002;2022-10-22T02:15:43;4.72;;;1.20;;
75423;SDS011;64005;55.160;36.002;2022-10-22T02:18:11;3.03;;;1.20;;
75423;SDS011;64005;55.160;36.002;2022-10-22T02:20:39;3.38;;;1.30;;
75423;SDS011;64005;55.160;36.002;2022-10-22T02:23:06;3.83;;;1.10;;
75423;SDS011;64005;55.160;36.002;2022-10-22T02:25:34;6.05;;;1.20;;
75423;SDS011;64005;55.160;36.002;2022-10-22T02:30:38;4.55;;;1.17;;
75423;SDS011;64005;55.160;36.002;2022-10-22T02:33:09;2.70;;;0.93;;
75423;SDS011;64005;55.160;36.002;2022-10-22T02:35:42;3.40;;;1.17;;
75423;SDS011;64005;55.160;36.002;2022-10-22T02:38:09;3.50;;;1.20;;
75423;SDS011;64005;55.160;36.002;2022-10-22T02:40:37;4.78;;;1.00;;
75423;SDS011;64005;55.160;36.002;2022-10-22T02:43:04;4.05;;;1.40;;
75423;SDS011;64005;55.160;36.002;2022-10-22T02:45:30;2.80;;;1.02;;
75423;SDS011;64005;55.160;36.002;2022-10-22T02:47:57;4.32;;;1.30;;
75423;SDS011;64005;55.160;36.002;2022-10-22T02:50:23;3.47;;;1.20;;
75423;SDS011;64005;55.160;36.002;2022-10-22T02:52:49;4.20;;;1.20;;
75423;SDS011;64005;55.160;36.002;2022-10-22T02:55:14;3.50;;;1.25;;
75423;SDS011;64005;55.160;36.002;2022-10-22T02:57:40;3.47;;;1.30;;
75423;SDS011;64005;55.160;36.002;2022-10-22T03:00:08;5.22;;;1.45;;
75423;SDS011;64005;55.160;36.002;2022-10-22T03:02:35;4.82;;;1.73;;
75423;SDS011;64005;55.160;36.002;2022-10-22T03:05:02;3.20;;;1.50;;
75423;SDS011;64005;55.160;36.002;2022-10-22T03:07:29;3.58;;;1.40;;
75423;SDS011;64005;55.160;36.002;2022-10-22T03:09:54;4.57;;;1.38;;
75423;SDS011;64005;55.160;36.002;2022-10-22T03:12:20;3.85;;;1.48;;
75423;SDS011;64005;55.160;36.002;2022-10-22T03:14:46;3.90;;;1.25;;
75423;SDS011;64005;55.160;36.002;2022-10-22T03:17:12;4.68;;;1.40;;
75423;SDS011;64005;55.160;36.002;2022-10-22T03:19:38;3.75;;;1.35;;
75423;SDS011;64005;55.160;36.002;2022-10-22T03:22:04;5.50;;;1.42;;
75423;SDS011;64005;55.160;36.002;2022-10-22T03:24:39;3.65;;;1.52;;
75423;SDS011;64005;55.160;36.002;2022-10-22T03:27:09;4.47;;;1.30;;
75423;SDS011;64005;55.160;36.002;2022-10-22T03:29:37;3.65;;;1.23;;
75423;SDS011;64005;55.160;36.002;2022-10-22T03:32:04;3.92;;;1.63;;
75423;SDS011;64005;55.160;36.002;2022-10-22T03:34:30;3.67;;;1.48;;
75423;SDS011;64005;55.160;36.002;2022-10-22T03:36:57;4.93;;;1.30;;
75423;SDS011;64005;55.160;36.002;2022-10-22T03:39:24;5.32;;;1.58;;
75423;SDS011;64005;55.160;36.002;2022-10-22T03:41:51;5.35;;;1.45;;
75423;SDS011;64005;55.160;36.002;2022-10-22T03:44:18;5.57;;;1.77;;
75423;SDS011;64005;55.160;36.002;2022-10-22T03:46:46;4.30;;;1.23;;
75423;SDS011;64005;55.160;36.002;2022-10-22T03:49:12;4.80;;;1.63;;
75423;SDS011;64005;55.160;36.002;2022-10-22T03:51:38;4.55;;;1.40;;
75423;SDS011;64005;55.160;36.002;2022-10-22T03:54:04;3.92;;;1.70;;
75423;SDS011;64005;55.160;36.002;2022-10-22T03:56:30;4.70;;;1.33;;
75423;SDS011;64005;55.160;36.002;2022-10-22T03:58:57;4.40;;;1.20;;
75423;SDS011;64005;55.160;36.002;2022-10-22T04:01:25;4.95;;;1.75;;
75423;SDS011;64005;55.160;36.002;2022-10-22T04:03:51;5.38;;;1.40;;
75423;SDS011;64005;55.160;36.002;2022-10-22T04:06:18;4.07;;;1.38;;
75423;SDS011;64005;55.160;36.002;2022-10-22T04:08:44;6.65;;;1.50;;
75423;SDS011;64005;55.160;36.002;2022-10-22T04:11:11;4.65;;;1.33;;
75423;SDS011;64005;55.160;36.002;2022-10-22T04:13:38;3.90;;;1.50;;
75423;SDS011;64005;55.160;36.002;2022-10-22T04:18:36;3.97;;;1.30;;
75423;SDS011;64005;55.160;36.002;2022-10-22T04:21:04;6.05;;;1.33;;
75423;SDS011;64005;55.160;36.002;2022-10-22T04:23:31;4.90;;;1.77;;
75423;SDS011;64005;55.160;36.002;2022-10-22T04:25:57;4.90;;;1.60;;
75423;SDS011;64005;55.160;36.002;2022-10-22T04:28:24;4.28;;;1.45;;
75423;SDS011;64005;55.160;36.002;2022-10-22T04:30:50;5.38;;;1.80;;
75423;SDS011;64005;55.160;36.002;2022-10-22T04:33:16;8.10;;;1.92;;
75423;SDS011;64005;55.160;36.002;2022-10-22T04:35:42;5.88;;;1.83;;
75423;SDS011;64005;55.160;36.002;2022-10-22T04:38:07;6.07;;;1.65;;
75423;SDS011;64005;55.160;36.002;2022-10-22T04:40:33;5.88;;;2.00;;
75423;SDS011;64005;55.160;36.002;2022-10-22T04:42:59;8.20;;;2.30;;
75423;SDS011;64005;55.160;36.002;2022-10-22T04:45:25;4.20;;;1.65;;
75423;SDS011;64005;55.160;36.002;2022-10-22T04:47:51;10.25;;;3.88;;
75423;SDS011;64005;55.160;36.002;2022-10-22T04:50:16;9.60;;;3.35;;
75423;SDS011;64005;55.160;36.002;2022-10-22T04:52:42;5.63;;;1.90;;
75423;SDS011;64005;55.160;36.002;2022-10-22T04:55:08;6.00;;;2.15;;
75423;SDS011;64005;55.160;36.002;2022-10-22T04:57:34;8.05;;;2.28;;
75423;SDS011;64005;55.160;36.002;2022-10-22T05:00:00;4.90;;;2.15;;
75423;SDS011;64005;55.160;36.002;2022-10-22T05:02:26;5.47;;;1.90;;
75423;SDS011;64005;55.160;36.002;2022-10-22T05:04:52;7.15;;;2.65;;
75423;SDS011;64005;55.160;36.002;2022-10-22T05:07:18;7.70;;;2.55;;
75423;SDS011;64005;55.160;36.002;2022-10-22T05:09:43;8.38;;;2.63;;
75423;SDS011;64005;55.160;36.002;2022-10-22T05:12:09;6.82;;;2.10;;
75423;SDS011;64005;55.160;36.002;2022-10-22T05:14:35;6.75;;;3.05;;
75423;SDS011;64005;55.160;36.002;2022-10-22T05:17:01;6.82;;;2.25;;
75423;SDS011;64005;55.160;36.002;2022-10-22T05:19:28;6.55;;;2.58;;
75423;SDS011;64005;55.160;36.002;2022-10-22T05:21:56;5.38;;;2.42;;
75423;SDS011;64005;55.160;36.002;2022-10-22T05:24:24;6.57;;;2.63;;
75423;SDS011;64005;55.160;36.002;2022-10-22T05:26:53;9.32;;;3.72;;
75423;SDS011;64005;55.160;36.002;2022-10-22T05:29:22;14.52;;;6.40;;
75423;SDS011;64005;55.160;36.002;2022-10-22T05:31:48;6.05;;;2.08;;
75423;SDS011;64005;55.160;36.002;2022-10-22T05:34:15;7.50;;;2.08;;
75423;SDS011;64005;55.160;36.002;2022-10-22T05:36:42;6.28;;;1.85;;
75423;SDS011;64005;55.160;36.002;2022-10-22T05:39:08;5.50;;;1.75;;
75423;SDS011;64005;55.160;36.002;2022-10-22T05:41:35;3.67;;;1.38;;
75423;SDS011;64005;55.160;36.002;2022-10-22T05:44:01;6.13;;;2.08;;
75423;SDS011;64005;55.160;36.002;2022-10-22T05:46:28;4.03;;;1.70;;
75423;SDS011;64005;55.160;36.002;2022-10-22T05:48:58;4.95;;;1.90;;
75423;SDS011;64005;55.160;36.002;2022-10-22T05:51:27;5.32;;;1.98;;
75423;SDS011;64005;55.160;36.002;2022-10-22T05:54:01;7.65;;;3.00;;
75423;SDS011;64005;55.160;36.002;2022-10-22T05:56:28;6.25;;;2.20;;
75423;SDS011;64005;55.160;36.002;2022-10-22T05:58:56;5.55;;;2.35;;
75423;SDS011;64005;55.160;36.002;2022-10-22T06:01:23;6.60;;;2.10;;
75423;SDS011;64005;55.160;36.002;2022-10-22T06:03:54;5.60;;;2.17;;
75423;SDS011;64005;55.160;36.002;2022-10-22T06:06:28;6.13;;;2.08;;
75423;SDS011;64005;55.160;36.002;2022-10-22T06:09:41;5.43;;;2.00;;
75423;SDS011;64005;55.160;36.002;2022-10-22T06:11:53;5.57;;;1.90;;
75423;SDS011;64005;55.160;36.002;2022-10-22T06:14:20;6.93;;;1.58;;
75423;SDS011;64005;55.160;36.002;2022-10-22T06:16:48;6.22;;;1.80;;
75423;SDS011;64005;55.160;36.002;2022-10-22T06:19:16;5.53;;;2.00;;
75423;SDS011;64005;55.160;36.002;2022-10-22T06:21:43;4.63;;;1.65;;
75423;SDS011;64005;55.160;36.002;2022-10-22T06:24:10;6.93;;;1.90;;
75423;SDS011;64005;55.160;36.002;2022-10-22T06:26:37;5.07;;;1.70;;
75423;SDS011;64005;55.160;36.002;2022-10-22T06:29:03;6.05;;;1.80;;
75423;SDS011;64005;55.160;36.002;2022-10-22T06:31:29;4.95;;;1.98;;
75423;SDS011;64005;55.160;36.002;2022-10-22T06:34:02;4.72;;;1.55;;
75423;SDS011;64005;55.160;36.002;2022-10-22T06:36:28;4.70;;;1.42;;
75423;SDS011;64005;55.160;36.002;2022-10-22T06:38:54;8.38;;;3.10;;
75423;SDS011;64005;55.160;36.002;2022-10-22T06:41:21;5.00;;;2.10;;
75423;SDS011;64005;55.160;36.002;2022-10-22T06:43:47;8.00;;;2.25;;
75423;SDS011;64005;55.160;36.002;2022-10-22T06:46:15;4.95;;;1.63;;
75423;SDS011;64005;55.160;36.002;2022-10-22T06:48:43;5.32;;;1.80;;
75423;SDS011;64005;55.160;36.002;2022-10-22T06:51:17;5.55;;;2.00;;
75423;SDS011;64005;55.160;36.002;2022-10-22T06:53:43;4.50;;;1.60;;
75423;SDS011;64005;55.160;36.002;2022-10-22T06:56:13;4.93;;;1.67;;
75423;SDS011;64005;55.160;36.002;2022-10-22T06:58:42;4.43;;;1.63;;
75423;SDS011;64005;55.160;36.002;2022-10-22T07:01:12;6.65;;;2.42;;
75423;SDS011;64005;55.160;36.002;2022-10-22T07:03:39;6.80;;;2.25;;
75423;SDS011;64005;55.160;36.002;2022-10-22T07:06:07;6.00;;;2.08;;
75423;SDS011;64005;55.160;36.002;2022-10-22T07:08:35;6.80;;;2.60;;
75423;SDS011;64005;55.160;36.002;2022-10-22T07:11:11;8.25;;;2.92;;
75423;SDS011;64005;55.160;36.002;2022-10-22T07:13:39;6.07;;;2.20;;
75423;SDS011;64005;55.160;36.002;2022-10-22T07:16:06;7.95;;;2.40;;
75423;SDS011;64005;55.160;36.002;2022-10-22T07:18:33;5.00;;;2.08;;
75423;SDS011;64005;55.160;36.002;2022-10-22T07:21:01;5.82;;;1.88;;
75423;SDS011;64005;55.160;36.002;2022-10-22T07:23:27;4.75;;;1.65;;
75423;SDS011;64005;55.160;36.002;2022-10-22T07:25:53;5.43;;;1.85;;
75423;SDS011;64005;55.160;36.002;2022-10-22T07:28:19;4.75;;;1.80;;
75423;SDS011;64005;55.160;36.002;2022-10-22T07:30:45;5.35;;;1.90;;
75423;SDS011;64005;55.160;36.002;2022-10-22T07:33:11;5.40;;;1.45;;
75423;SDS011;64005;55.160;36.002;2022-10-22T07:35:38;5.10;;;1.73;;
75423;SDS011;64005;55.160;36.002;2022-10-22T07:38:05;5.35;;;1.90;;
75423;SDS011;64005;55.160;36.002;2022-10-22T07:40:32;4.95;;;1.92;;
75423;SDS011;64005;55.160;36.002;2022-10-22T07:42:58;5.70;;;1.90;;
75423;SDS011;64005;55.160;36.002;2022-10-22T07:48:16;3.75;;;1.50;;
75423;SDS011;64005;55.160;36.002;2022-10-22T07:50:42;5.47;;;1.98;;
75423;SDS011;64005;55.160;36.002;2022-10-22T07:53:08;4.50;;;1.80;;
75423;SDS011;64005;55.160;36.002;2022-10-22T07:55:34;6.30;;;1.92;;
75423;SDS011;64005;55.160;36.002;2022-10-22T07:58:00;6.32;;;2.50;;
75423;SDS011;64005;55.160;36.002;2022-10-22T08:00:26;4.50;;;1.83;;
75423;SDS011;64005;55.160;36.002;2022-10-22T08:02:52;4.38;;;1.52;;
75423;SDS011;64005;55.160;36.002;2022-10-22T08:05:18;5.13;;;1.70;;
75423;SDS011;64005;55.160;36.002;2022-10-22T08:07:44;5.70;;;2.28;;
75423;SDS011;64005;55.160;36.002;2022-10-22T08:10:10;4.80;;;1.70;;
75423;SDS011;64005;55.160;36.002;2022-10-22T08:12:37;4.40;;;1.48;;
75423;SDS011;64005;55.160;36.002;2022-10-22T08:15:04;5.35;;;1.70;;
75423;SDS011;64005;55.160;36.002;2022-10-22T08:17:30;4.90;;;1.50;;
75423;SDS011;64005;55.160;36.002;2022-10-22T08:19:56;5.55;;;1.75;;
75423;SDS011;64005;55.160;36.002;2022-10-22T08:22:22;4.53;;;1.50;;
75423;SDS011;64005;55.160;36.002;2022-10-22T08:24:48;3.88;;;1.52;;
75423;SDS011;64005;55.160;36.002;2022-10-22T08:27:14;4.00;;;1.40;;
75423;SDS011;64005;55.160;36.002;2022-10-22T08:29:40;3.75;;;1.45;;
75423;SDS011;64005;55.160;36.002;2022-10-22T08:32:06;4.03;;;1.45;;
75423;SDS011;64005;55.160;36.002;2022-10-22T08:34:32;4.47;;;1.60;;
75423;SDS011;64005;55.160;36.002;2022-10-22T08:36:58;4.18;;;1.52;;
75423;SDS011;64005;55.160;36.002;2022-10-22T08:39:24;3.90;;;1.33;;
75423;SDS011;64005;55.160;36.002;2022-10-22T08:42:13;3.67;;;1.05;;
75423;SDS011;64005;55.160;36.002;2022-10-22T08:45:14;5.53;;;1.15;;
75423;SDS011;64005;55.160;36.002;2022-10-22T08:50:45;2.22;;;0.90;;
75423;SDS011;64005;55.160;36.002;2022-10-22T08:53:17;3.03;;;1.08;;
75423;SDS011;64005;55.160;36.002;2022-10-22T08:55:48;11.38;;;3.00;;
75423;SDS011;64005;55.160;36.002;2022-10-22T09:00:59;3.60;;;0.93;;
75423;SDS011;64005;55.160;36.002;2022-10-22T09:06:11;3.28;;;1.25;;
75423;SDS011;64005;55.160;36.002;2022-10-22T09:08:41;3.40;;;1.15;;
75423;SDS011;64005;55.160;36.002;2022-10-22T09:13:38;4.50;;;1.50;;
75423;SDS011;64005;55.160;36.002;2022-10-22T09:16:25;3.10;;;1.02;;
75423;SDS011;64005;55.160;36.002;2022-10-22T09:19:06;3.95;;;1.50;;
75423;SDS011;64005;55.160;36.002;2022-10-22T09:24:38;2.83;;;1.20;;
75423;SDS011;64005;55.160;36.002;2022-10-22T09:27:11;7.75;;;2.50;;
75423;SDS011;64005;55.160;36.002;2022-10-22T09:29:46;3.60;;;1.13;;
75423;SDS011;64005;55.160;36.002;2022-10-22T09:32:13;3.20;;;1.52;;
75423;SDS011;64005;55.160;36.002;2022-10-22T09:34:39;3.33;;;0.93;;
75423;SDS011;64005;55.160;36.002;2022-10-22T09:37:07;2.75;;;1.00;;
75423;SDS011;64005;55.160;36.002;2022-10-22T09:39:36;3.38;;;1.30;;
75423;SDS011;64005;55.160;36.002;2022-10-22T09:42:04;3.15;;;1.08;;
75423;SDS011;64005;55.160;36.002;2022-10-22T09:44:32;2.33;;;0.75;;
75423;SDS011;64005;55.160;36.002;2022-10-22T09:47:06;5.72;;;1.42;;
75423;SDS011;64005;55.160;36.002;2022-10-22T09:52:38;3.10;;;0.90;;
75423;SDS011;64005;55.160;36.002;2022-10-22T09:55:15;2.65;;;1.00;;
75423;SDS011;64005;55.160;36.002;2022-10-22T09:57:43;3.47;;;1.15;;
75423;SDS011;64005;55.160;36.002;2022-10-22T10:00:17;3.97;;;0.82;;
75423;SDS011;64005;55.160;36.002;2022-10-22T10:02:44;2.72;;;1.00;;
75423;SDS011;64005;55.160;36.002;2022-10-22T10:05:18;4.38;;;1.40;;
75423;SDS011;64005;55.160;36.002;2022-10-22T10:07:49;3.55;;;1.00;;
75423;SDS011;64005;55.160;36.002;2022-10-22T10:10:18;3.15;;;1.27;;
75423;SDS011;64005;55.160;36.002;2022-10-22T10:13:01;2.22;;;1.10;;
75423;SDS011;64005;55.160;36.002;2022-10-22T10:21:21;4.43;;;0.80;;
75423;SDS011;64005;55.160;36.002;2022-10-22T10:37:25;3.97;;;1.40;;
75423;SDS011;64005;55.160;36.002;2022-10-22T10:45:14;2.80;;;1.00;;
75423;SDS011;64005;55.160;36.002;2022-10-22T10:50:54;2.83;;;1.02;;
75423;SDS011;64005;55.160;36.002;2022-10-22T10:53:33;3.42;;;1.13;;
75423;SDS011;64005;55.160;36.002;2022-10-22T11:07:36;4.07;;;1.13;;
75423;SDS011;64005;55.160;36.002;2022-10-22T11:12:52;5.35;;;1.20;;
75423;SDS011;64005;55.160;36.002;2022-10-22T11:15:25;5.63;;;1.60;;
75423;SDS011;64005;55.160;36.002;2022-10-22T11:17:58;4.32;;;2.00;;
75423;SDS011;64005;55.160;36.002;2022-10-22T11:20:50;6.10;;;1.92;;
75423;SDS011;64005;55.160;36.002;2022-10-22T11:23:45;5.35;;;2.25;;
75423;SDS011;64005;55.160;36.002;2022-10-22T11:26:24;5.97;;;2.00;;
75423;SDS011;64005;55.160;36.002;2022-10-22T11:28:56;3.90;;;1.80;;
75423;SDS011;64005;55.160;36.002;2022-10-22T11:31:26;3.85;;;1.65;;
75423;SDS011;64005;55.160;36.002;2022-10-22T11:33:57;4.88;;;1.60;;
75423;SDS011;64005;55.160;36.002;2022-10-22T11:36:30;5.38;;;2.05;;
75423;SDS011;64005;55.160;36.002;2022-10-22T11:38:57;3.63;;;1.35;;
75423;SDS011;64005;55.160;36.002;2022-10-22T11:41:25;4.15;;;1.58;;
75423;SDS011;64005;55.160;36.002;2022-10-22T11:44:10;5.32;;;2.00;;
75423;SDS011;64005;55.160;36.002;2022-10-22T11:46:57;4.75;;;1.92;;
75423;SDS011;64005;55.160;36.002;2022-10-22T11:49:44;4.60;;;1.88;;
75423;SDS011;64005;55.160;36.002;2022-10-22T11:55:00;5.00;;;2.03;;
75423;SDS011;64005;55.160;36.002;2022-10-22T11:57:35;6.03;;;2.00;;
75423;SDS011;64005;55.160;36.002;2022-10-22T12:03:22;8.27;;;2.47;;
75423;SDS011;64005;55.160;36.002;2022-10-22T12:08:29;5.15;;;1.85;;
75423;SDS011;64005;55.160;36.002;2022-10-22T12:16:57;5.80;;;2.17;;
75423;SDS011;64005;55.160;36.002;2022-10-22T12:19:37;4.63;;;2.00;;
75423;SDS011;64005;55.160;36.002;2022-10-22T12:24:38;5.43;;;1.90;;
75423;SDS011;64005;55.160;36.002;2022-10-22T12:27:24;5.35;;;2.00;;
75423;SDS011;64005;55.160;36.002;2022-10-22T12:29:54;6.47;;;1.77;;
75423;SDS011;64005;55.160;36.002;2022-10-22T12:32:21;4.35;;;1.95;;
75423;SDS011;64005;55.160;36.002;2022-10-22T12:34:49;5.32;;;2.40;;
75423;SDS011;64005;55.160;36.002;2022-10-22T12:37:17;5.97;;;2.10;;
75423;SDS011;64005;55.160;36.002;2022-10-22T12:39:44;4.90;;;2.38;;
75423;SDS011;64005;55.160;36.002;2022-10-22T12:42:15;5.40;;;2.33;;
75423;SDS011;64005;55.160;36.002;2022-10-22T12:44:42;6.35;;;2.72;;
75423;SDS011;64005;55.160;36.002;2022-10-22T12:47:11;6.90;;;3.47;;
75423;SDS011;64005;55.160;36.002;2022-10-22T12:49:42;7.10;;;2.80;;
75423;SDS011;64005;55.160;36.002;2022-10-22T12:52:20;5.75;;;2.42;;
75423;SDS011;64005;55.160;36.002;2022-10-22T12:54:49;6.10;;;2.45;;
75423;SDS011;64005;55.160;36.002;2022-10-22T12:57:19;6.13;;;3.53;;
75423;SDS011;64005;55.160;36.002;2022-10-22T12:59:47;8.60;;;3.50;;
75423;SDS011;64005;55.160;36.002;2022-10-22T13:02:23;5.53;;;2.80;;
75423;SDS011;64005;55.160;36.002;2022-10-22T13:05:13;5.10;;;2.53;;
75423;SDS011;64005;55.160;36.002;2022-10-22T13:07:41;4.20;;;1.90;;
75423;SDS011;64005;55.160;36.002;2022-10-22T13:10:18;6.53;;;1.67;;
75423;SDS011;64005;55.160;36.002;2022-10-22T13:12:55;4.70;;;2.03;;
75423;SDS011;64005;55.160;36.002;2022-10-22T13:18:00;4.22;;;1.77;;
75423;SDS011;64005;55.160;36.002;2022-10-22T13:20:56;5.13;;;1.70;;
75423;SDS011;64005;55.160;36.002;2022-10-22T13:23:24;5.00;;;1.80;;
75423;SDS011;64005;55.160;36.002;2022-10-22T13:25:55;4.93;;;1.83;;
75423;SDS011;64005;55.160;36.002;2022-10-22T13:28:24;7.45;;;1.70;;
75423;SDS011;64005;55.160;36.002;2022-10-22T13:30:52;4.55;;;2.08;;
75423;SDS011;64005;55.160;36.002;2022-10-22T13:33:33;7.03;;;1.90;;
75423;SDS011;64005;55.160;36.002;2022-10-22T13:36:02;5.93;;;2.25;;
75423;SDS011;64005;55.160;36.002;2022-10-22T13:38:29;5.00;;;1.83;;
75423;SDS011;64005;55.160;36.002;2022-10-22T13:40:55;5.28;;;1.80;;
75423;SDS011;64005;55.160;36.002;2022-10-22T13:43:22;7.18;;;2.40;;
75423;SDS011;64005;55.160;36.002;2022-10-22T13:45:51;7.25;;;2.65;;
75423;SDS011;64005;55.160;36.002;2022-10-22T13:48:20;4.72;;;2.10;;
75423;SDS011;64005;55.160;36.002;2022-10-22T13:50:48;5.80;;;1.88;;
75423;SDS011;64005;55.160;36.002;2022-10-22T13:53:25;6.18;;;2.55;;
75423;SDS011;64005;55.160;36.002;2022-10-22T13:55:52;5.35;;;2.25;;
75423;SDS011;64005;55.160;36.002;2022-10-22T13:58:19;7.75;;;2.15;;
75423;SDS011;64005;55.160;36.002;2022-10-22T14:00:55;4.85;;;2.45;;
75423;SDS011;64005;55.160;36.002;2022-10-22T14:03:27;7.25;;;2.88;;
75423;SDS011;64005;55.160;36.002;2022-10-22T14:05:57;6.70;;;2.58;;
75423;SDS011;64005;55.160;36.002;2022-10-22T14:08:23;6.57;;;2.65;;
75423;SDS011;64005;55.160;36.002;2022-10-22T14:10:52;5.15;;;1.85;;
75423;SDS011;64005;55.160;36.002;2022-10-22T14:13:18;6.55;;;2.53;;
75423;SDS011;64005;55.160;36.002;2022-10-22T14:15:45;4.28;;;2.00;;
75423;SDS011;64005;55.160;36.002;2022-10-22T14:18:15;4.18;;;1.83;;
75423;SDS011;64005;55.160;36.002;2022-10-22T14:20:56;5.88;;;2.15;;
75423;SDS011;64005;55.160;36.002;2022-10-22T14:23:32;3.78;;;1.83;;
75423;SDS011;64005;55.160;36.002;2022-10-22T14:26:00;5.50;;;1.88;;
75423;SDS011;64005;55.160;36.002;2022-10-22T14:28:28;4.53;;;1.70;;
75423;SDS011;64005;55.160;36.002;2022-10-22T14:30:54;5.03;;;1.95;;
75423;SDS011;64005;55.160;36.002;2022-10-22T14:33:22;5.28;;;2.17;;
75423;SDS011;64005;55.160;36.002;2022-10-22T14:35:53;5.20;;;2.40;;
75423;SDS011;64005;55.160;36.002;2022-10-22T14:38:19;7.38;;;2.50;;
75423;SDS011;64005;55.160;36.002;2022-10-22T14:40:45;7.38;;;2.05;;
75423;SDS011;64005;55.160;36.002;2022-10-22T14:43:13;5.53;;;2.40;;
75423;SDS011;64005;55.160;36.002;2022-10-22T14:45:44;7.22;;;2.53;;
75423;SDS011;64005;55.160;36.002;2022-10-22T14:48:10;5.70;;;2.42;;
75423;SDS011;64005;55.160;36.002;2022-10-22T14:50:36;7.80;;;2.85;;
75423;SDS011;64005;55.160;36.002;2022-10-22T14:53:02;10.15;;;4.05;;
75423;SDS011;64005;55.160;36.002;2022-10-22T14:55:28;11.55;;;4.05;;
75423;SDS011;64005;55.160;36.002;2022-10-22T14:57:54;11.98;;;4.10;;
75423;SDS011;64005;55.160;36.002;2022-10-22T15:00:20;9.88;;;3.70;;
75423;SDS011;64005;55.160;36.002;2022-10-22T15:02:46;7.57;;;3.50;;
75423;SDS011;64005;55.160;36.002;2022-10-22T15:05:13;9.20;;;3.55;;
75423;SDS011;64005;55.160;36.002;2022-10-22T15:07:40;8.98;;;3.70;;
75423;SDS011;64005;55.160;36.002;2022-10-22T15:10:06;6.75;;;2.83;;
75423;SDS011;64005;55.160;36.002;2022-10-22T15:12:33;6.78;;;3.25;;
75423;SDS011;64005;55.160;36.002;2022-10-22T15:14:59;6.35;;;3.30;;
75423;SDS011;64005;55.160;36.002;2022-10-22T15:17:25;8.05;;;3.03;;
75423;SDS011;64005;55.160;36.002;2022-10-22T15:19:52;6.70;;;3.20;;
75423;SDS011;64005;55.160;36.002;2022-10-22T15:22:20;6.35;;;3.10;;
75423;SDS011;64005;55.160;36.002;2022-10-22T15:24:47;7.32;;;2.90;;
75423;SDS011;64005;55.160;36.002;2022-10-22T15:27:14;6.05;;;2.70;;
75423;SDS011;64005;55.160;36.002;2022-10-22T15:29:40;7.72;;;2.85;;
75423;SDS011;64005;55.160;36.002;2022-10-22T15:32:07;6.35;;;2.65;;
75423;SDS011;64005;55.160;36.002;2022-10-22T15:34:37;6.85;;;3.00;;
75423;SDS011;64005;55.160;36.002;2022-10-22T15:37:05;7.20;;;2.42;;
75423;SDS011;64005;55.160;36.002;2022-10-22T15:39:32;6.25;;;3.03;;
75423;SDS011;64005;55.160;36.002;2022-10-22T15:41:58;6.68;;;2.40;;
75423;SDS011;64005;55.160;36.002;2022-10-22T15:44:25;6.93;;;2.47;;
75423;SDS011;64005;55.160;36.002;2022-10-22T15:46:53;7.72;;;2.80;;
75423;SDS011;64005;55.160;36.002;2022-10-22T15:49:20;4.68;;;2.30;;
75423;SDS011;64005;55.160;36.002;2022-10-22T15:51:50;7.18;;;2.83;;
75423;SDS011;64005;55.160;36.002;2022-10-22T15:54:17;6.70;;;3.00;;
75423;SDS011;64005;55.160;36.002;2022-10-22T15:56:46;8.23;;;3.40;;
75423;SDS011;64005;55.160;36.002;2022-10-22T15:59:13;9.10;;;3.38;;
75423;SDS011;64005;55.160;36.002;2022-10-22T16:01:41;9.80;;;3.58;;
75423;SDS011;64005;55.160;36.002;2022-10-22T16:04:08;10.15;;;3.70;;
75423;SDS011;64005;55.160;36.002;2022-10-22T16:06:36;11.77;;;3.83;;
75423;SDS011;64005;55.160;36.002;2022-10-22T16:09:07;9.52;;;4.00;;
75423;SDS011;64005;55.160;36.002;2022-10-22T16:11:35;10.68;;;4.13;;
75423;SDS011;64005;55.160;36.002;2022-10-22T16:14:02;9.95;;;3.83;;
75423;SDS011;64005;55.160;36.002;2022-10-22T16:16:29;7.63;;;3.47;;
75423;SDS011;64005;55.160;36.002;2022-10-22T16:18:56;9.55;;;4.10;;
75423;SDS011;64005;55.160;36.002;2022-10-22T16:21:23;8.80;;;3.75;;
75423;SDS011;64005;55.160;36.002;2022-10-22T16:23:49;9.40;;;4.20;;
75423;SDS011;64005;55.160;36.002;2022-10-22T16:26:16;7.70;;;3.42;;
75423;SDS011;64005;55.160;36.002;2022-10-22T16:28:44;11.02;;;3.95;;
75423;SDS011;64005;55.160;36.002;2022-10-22T16:31:11;7.63;;;3.42;;
75423;SDS011;64005;55.160;36.002;2022-10-22T16:33:39;7.22;;;3.30;;